createdAt,value
2022-10-13T00:04:17.765Z,72
2022-10-13T00:14:17.752Z,72
2022-10-13T00:24:17.669Z,71.5
2022-10-13T00:34:17.744Z,71.5
2022-10-13T00:44:17.657Z,71.5
2022-10-13T00:54:17.733Z,71.5
2022-10-13T01:04:17.658Z,71.5
2022-10-13T01:14:17.736Z,71.5
2022-10-13T01:24:17.646Z,71.5
2022-10-13T01:34:17.721Z,71.5
2022-10-13T01:44:17.853Z,71.5
2022-10-13T01:54:17.730Z,71.5
2022-10-13T02:04:17.848Z,71.5
2022-10-13T02:14:17.726Z,71.5
2022-10-13T02:24:17.953Z,71.5
2022-10-13T02:34:17.718Z,71.5
2022-10-13T02:44:17.838Z,71.5
2022-10-13T02:54:17.708Z,71.5
2022-10-13T03:04:17.839Z,71.5
2022-10-13T03:14:17.903Z,71.5
2022-10-13T03:24:17.815Z,71.5
2022-10-13T03:34:17.920Z,71.5
2022-10-13T03:44:17.834Z,71.5
2022-10-13T03:54:17.912Z,71.5
2022-10-13T04:04:17.823Z,71.5
2022-10-13T04:14:17.910Z,71.5
2022-10-13T04:24:17.828Z,71.5
2022-10-13T04:34:17.906Z,71.5
2022-10-13T04:44:18.032Z,71.5
2022-10-13T04:54:17.886Z,71.5
2022-10-13T05:04:18.016Z,71.5
2022-10-13T05:14:17.883Z,71.5
2022-10-13T05:24:18.025Z,59
2022-10-13T05:34:17.884Z,59.5
2022-10-13T05:44:17.999Z,61.5
2022-10-13T05:54:17.881Z,64
2022-10-13T06:04:18.023Z,65.5
2022-10-13T06:14:18.096Z,66.5
2022-10-13T06:24:18.035Z,67
2022-10-13T06:34:18.072Z,64.5
2022-10-13T06:44:17.984Z,54.5
2022-10-13T06:54:18.072Z,57.5
2022-10-13T07:04:17.995Z,60
2022-10-13T07:14:18.080Z,62
2022-10-13T07:24:18.183Z,63.5
2022-10-13T07:34:18.054Z,64.5
2022-10-13T07:44:18.181Z,65.5
2022-10-13T07:54:18.051Z,66
2022-10-13T08:04:18.178Z,66.5
2022-10-13T08:14:18.034Z,66.5
2022-10-13T08:24:18.229Z,66.5
2022-10-13T08:34:18.234Z,66.5
2022-10-13T08:44:59.495Z,66.5
2022-10-13T08:54:18.274Z,66.5
2022-10-13T09:04:18.161Z,67
2022-10-13T09:14:18.246Z,67.5
2022-10-13T09:24:18.204Z,67.5
2022-10-13T09:34:18.242Z,67
2022-10-13T09:44:18.168Z,67
2022-10-13T09:54:18.271Z,67
2022-10-13T10:04:18.424Z,66
2022-10-13T10:14:18.370Z,65
2022-10-13T10:24:18.515Z,64
2022-10-13T10:34:18.226Z,63
2022-10-13T10:44:18.358Z,62.5
2022-10-13T10:54:18.224Z,67
2022-10-13T11:04:18.361Z,65.5
2022-10-13T11:14:18.215Z,63
2022-10-13T11:24:18.389Z,62
2022-10-13T11:34:18.263Z,59.5
2022-10-13T11:44:18.444Z,57.5
2022-10-13T11:54:18.284Z,57.5
2022-10-13T12:04:18.417Z,55.5
2022-10-13T12:14:18.286Z,54
2022-10-13T12:24:18.435Z,53.5
2022-10-13T12:34:18.327Z,53
2022-10-13T12:44:18.463Z,52.5
2022-10-13T12:54:18.381Z,50
2022-10-13T13:04:18.531Z,48.5
2022-10-13T13:14:18.411Z,50.5
2022-10-13T13:24:28.705Z,50
2022-10-13T13:34:19.857Z,46
2022-10-13T13:44:18.536Z,49
2022-10-13T13:54:18.415Z,48.5
2022-10-13T14:04:18.559Z,48.5
2022-10-13T14:14:18.436Z,47.5
2022-10-13T14:24:18.460Z,47
2022-10-13T14:34:18.537Z,46
2022-10-13T14:44:18.657Z,47
2022-10-13T14:54:18.537Z,43
2022-10-13T15:04:18.501Z,42.5
2022-10-13T15:14:18.562Z,44.5
2022-10-13T15:24:18.688Z,45
2022-10-13T15:34:18.578Z,45.5
2022-10-13T15:44:18.695Z,47.5
2022-10-13T15:54:18.831Z,48
2022-10-13T16:04:18.915Z,50.5
2022-10-13T16:14:18.770Z,54.5
2022-10-13T16:24:19.096Z,56
2022-10-13T16:34:18.675Z,57
2022-10-13T16:44:18.611Z,57.5
2022-10-13T16:54:18.679Z,58.5
2022-10-13T17:04:22.090Z,59
2022-10-13T17:14:18.677Z,59.5
2022-10-13T17:24:18.806Z,59.5
2022-10-13T17:34:18.706Z,56.5
2022-10-13T17:44:18.819Z,58
2022-10-13T17:54:18.677Z,56
2022-10-13T18:04:18.844Z,56
2022-10-13T18:14:19.024Z,56.5
2022-10-13T18:24:18.940Z,57.5
2022-10-13T18:34:19.106Z,59
2022-10-13T18:44:19.087Z,59.5
2022-10-13T18:54:21.883Z,61
2022-10-13T19:04:18.978Z,62
2022-10-13T19:14:19.147Z,62.5
2022-10-13T19:24:18.790Z,62.5
2022-10-13T19:34:18.860Z,63
2022-10-13T19:44:18.928Z,63
2022-10-13T19:54:18.809Z,63
2022-10-13T20:04:18.942Z,63
2022-10-13T20:14:18.807Z,63
2022-10-13T20:24:18.935Z,63.5
2022-10-13T20:34:18.905Z,63.5
2022-10-13T20:44:18.981Z,63.5
2022-10-13T20:54:18.864Z,63.5
2022-10-13T21:04:18.997Z,65
2022-10-13T21:14:18.861Z,65
2022-10-13T21:24:18.979Z,65
2022-10-13T21:34:19.043Z,64.5
2022-10-13T21:44:18.976Z,64.5
2022-10-13T21:54:19.044Z,64.5
2022-10-13T22:04:18.969Z,64.5
2022-10-13T22:14:19.044Z,64.5
2022-10-13T22:24:18.956Z,64.5
2022-10-13T22:34:19.040Z,64.5
2022-10-13T22:44:19.032Z,64.5
2022-10-13T22:54:19.140Z,64.5
2022-10-13T23:04:19.036Z,64.5
2022-10-13T23:14:18.967Z,64.5
2022-10-13T23:24:19.092Z,64.5
2022-10-13T23:34:19.165Z,64.5
2022-10-13T23:44:19.101Z,64.5
2022-10-13T23:54:19.174Z,64.5
